createdAt,value
2022-11-12T00:02:44.002Z,8.98
2022-11-12T00:05:31.921Z,8.35
2022-11-12T00:08:18.926Z,10.43
2022-11-12T00:11:07.455Z,9.23
2022-11-12T00:13:54.192Z,7.90
2022-11-12T00:16:40.987Z,7.60
2022-11-12T00:19:27.998Z,10.63
2022-11-12T00:22:14.866Z,8.65
2022-11-12T00:25:01.377Z,6.40
2022-11-12T00:27:49.426Z,6.05
2022-11-12T00:30:39.032Z,6.93
2022-11-12T00:33:25.992Z,6.35
2022-11-12T00:36:12.913Z,8.45
2022-11-12T00:38:59.434Z,5.97
2022-11-12T00:41:46.243Z,6.78
2022-11-12T00:44:34.612Z,7.30
2022-11-12T00:47:21.690Z,6.95
2022-11-12T00:50:09.944Z,5.82
2022-11-12T00:52:56.928Z,6.88
2022-11-12T00:55:43.612Z,6.75
2022-11-12T00:58:31.305Z,6.15
2022-11-12T01:01:19.971Z,5.53
2022-11-12T01:04:06.738Z,4.85
2022-11-12T01:06:54.676Z,5.40
2022-11-12T01:09:41.453Z,5.00
2022-11-12T01:12:28.413Z,4.20
2022-11-12T01:15:15.385Z,5.65
2022-11-12T01:18:03.921Z,5.07
2022-11-12T01:20:50.575Z,3.65
2022-11-12T01:23:39.379Z,6.63
2022-11-12T01:26:28.374Z,4.72
2022-11-12T01:29:15.606Z,4.07
2022-11-12T01:32:02.676Z,5.07
2022-11-12T01:34:52.087Z,5.15
2022-11-12T01:37:38.705Z,5.65
2022-11-12T01:40:25.202Z,5.15
2022-11-12T01:43:14.524Z,5.95
2022-11-12T01:46:04.467Z,5.40
2022-11-12T01:48:54.245Z,5.10
2022-11-12T01:51:45.306Z,4.90
2022-11-12T01:54:32.771Z,4.60
2022-11-12T01:57:24.862Z,5.00
2022-11-12T02:00:14.063Z,3.78
2022-11-12T02:03:03.575Z,4.82
2022-11-12T02:05:54.020Z,5.00
2022-11-12T02:08:43.579Z,4.57
2022-11-12T02:11:30.392Z,4.70
2022-11-12T02:14:16.070Z,4.68
2022-11-12T02:17:02.825Z,5.68
2022-11-12T02:19:49.491Z,4.65
2022-11-12T02:22:43.944Z,3.60
2022-11-12T02:25:30.942Z,4.28
2022-11-12T02:28:18.731Z,4.90
2022-11-12T02:31:05.652Z,4.80
2022-11-12T02:33:52.351Z,3.10
2022-11-12T02:36:39.306Z,4.80
2022-11-12T02:39:27.771Z,4.25
2022-11-12T02:42:14.800Z,3.15
2022-11-12T02:45:01.671Z,4.45
2022-11-12T02:47:48.173Z,5.28
2022-11-12T02:50:34.655Z,6.57
2022-11-12T02:53:21.438Z,3.78
2022-11-12T02:56:09.835Z,3.85
2022-11-12T02:58:56.312Z,5.13
2022-11-12T03:01:43.010Z,4.97
2022-11-12T03:04:29.579Z,5.22
2022-11-12T03:07:16.399Z,7.05
2022-11-12T03:10:02.884Z,5.40
2022-11-12T03:12:51.063Z,5.82
2022-11-12T03:15:39.025Z,6.68
2022-11-12T03:18:26.082Z,5.25
2022-11-12T03:21:13.017Z,8.32
2022-11-12T03:23:59.820Z,5.88
2022-11-12T03:26:46.597Z,5.95
2022-11-12T03:29:35.054Z,6.00
2022-11-12T03:32:21.700Z,5.35
2022-11-12T03:35:09.213Z,4.75
2022-11-12T03:37:56.150Z,5.03
2022-11-12T03:40:43.237Z,5.75
2022-11-12T03:43:30.562Z,5.72
2022-11-12T03:46:18.743Z,4.80
2022-11-12T03:49:05.450Z,5.95
2022-11-12T03:51:52.272Z,7.03
2022-11-12T03:54:38.911Z,4.90
2022-11-12T03:57:25.691Z,4.63
2022-11-12T04:00:14.215Z,5.93
2022-11-12T04:03:02.075Z,6.95
2022-11-12T04:06:06.128Z,5.43
2022-11-12T04:08:52.854Z,5.57
2022-11-12T04:11:39.767Z,4.25
2022-11-12T04:14:25.284Z,6.30
2022-11-12T04:17:29.069Z,4.65
2022-11-12T04:20:35.006Z,4.25
2022-11-12T04:23:21.728Z,3.77
2022-11-12T04:26:25.537Z,4.65
2022-11-12T04:29:30.396Z,5.32
2022-11-12T04:32:18.844Z,4.95
2022-11-12T04:35:09.363Z,5.78
2022-11-12T04:37:57.644Z,3.65
2022-11-12T04:41:01.725Z,5.32
2022-11-12T04:44:05.521Z,4.30
2022-11-12T04:46:52.026Z,4.32
2022-11-12T04:49:38.857Z,4.97
2022-11-12T04:52:25.789Z,6.38
2022-11-12T04:55:13.762Z,6.72
2022-11-12T04:58:01.192Z,5.07
2022-11-12T05:00:48.742Z,5.75
2022-11-12T05:03:35.405Z,3.90
2022-11-12T05:06:39.053Z,4.90
2022-11-12T05:09:27.886Z,5.97
2022-11-12T05:12:16.242Z,4.07
2022-11-12T05:15:02.927Z,4.93
2022-11-12T05:17:49.829Z,4.03
2022-11-12T05:20:36.615Z,4.30
2022-11-12T05:23:23.109Z,5.90
2022-11-12T05:26:09.714Z,5.75
2022-11-12T05:28:57.893Z,4.85
2022-11-12T05:31:44.922Z,4.43
2022-11-12T05:34:31.959Z,6.88
2022-11-12T05:37:19.174Z,4.05
2022-11-12T05:40:07.069Z,3.95
2022-11-12T05:42:53.814Z,5.28
2022-11-12T05:45:44.144Z,3.63
2022-11-12T05:48:31.302Z,3.90
2022-11-12T05:51:18.164Z,4.70
2022-11-12T05:54:05.311Z,3.60
2022-11-12T05:56:52.806Z,4.50
2022-11-12T05:59:39.712Z,4.70
2022-11-12T06:02:27.976Z,5.70
2022-11-12T06:05:14.685Z,4.28
2022-11-12T06:08:01.535Z,7.32
2022-11-12T06:10:49.761Z,5.47
2022-11-12T06:13:36.732Z,5.60
2022-11-12T06:16:23.810Z,5.13
2022-11-12T06:19:12.070Z,5.55
2022-11-12T06:21:58.765Z,10.45
2022-11-12T06:24:45.814Z,4.97
2022-11-12T06:27:32.486Z,4.45
2022-11-12T06:30:25.380Z,6.15
2022-11-12T06:33:12.369Z,4.50
2022-11-12T06:36:03.247Z,5.47
2022-11-12T06:38:49.962Z,6.05
2022-11-12T06:41:36.796Z,3.38
2022-11-12T06:44:23.955Z,3.83
2022-11-12T06:47:12.991Z,4.68
2022-11-12T06:50:00.247Z,4.13
2022-11-12T06:52:48.509Z,4.07
2022-11-12T06:55:35.713Z,3.75
2022-11-12T06:58:22.346Z,4.20
2022-11-12T07:01:12.481Z,3.65
2022-11-12T07:03:59.199Z,3.75
2022-11-12T07:06:46.140Z,2.90
2022-11-12T07:09:34.093Z,4.88
2022-11-12T07:12:20.653Z,2.97
2022-11-12T07:15:08.209Z,4.05
2022-11-12T07:17:54.969Z,3.67
2022-11-12T07:20:41.964Z,4.18
2022-11-12T07:23:31.121Z,3.42
2022-11-12T07:26:21.705Z,2.67
2022-11-12T07:29:08.412Z,3.83
2022-11-12T07:31:55.012Z,2.38
2022-11-12T07:34:41.625Z,4.63
2022-11-12T07:37:28.333Z,2.65
2022-11-12T07:40:16.198Z,3.08
2022-11-12T07:43:04.169Z,3.33
2022-11-12T07:45:50.957Z,2.25
2022-11-12T07:48:38.050Z,2.75
2022-11-12T07:51:26.572Z,2.47
2022-11-12T07:54:14.014Z,2.15
2022-11-12T07:57:00.690Z,2.38
2022-11-12T07:59:49.106Z,2.63
2022-11-12T08:02:36.010Z,2.90
2022-11-12T08:05:22.773Z,4.57
2022-11-12T08:08:09.642Z,1.88
2022-11-12T08:10:57.683Z,2.47
2022-11-12T08:13:44.110Z,2.75
2022-11-12T08:16:32.874Z,2.88
2022-11-12T08:19:19.516Z,4.13
2022-11-12T08:22:06.431Z,3.65
2022-11-12T08:24:52.925Z,2.63
2022-11-12T08:27:39.780Z,3.30
2022-11-12T08:30:28.338Z,2.90
2022-11-12T08:33:16.314Z,3.65
2022-11-12T08:36:04.440Z,2.53
2022-11-12T08:38:54.534Z,3.10
2022-11-12T08:41:41.388Z,3.55
2022-11-12T08:44:28.096Z,3.10
2022-11-12T08:47:14.833Z,3.03
2022-11-12T08:50:03.567Z,3.80
2022-11-12T08:52:50.102Z,4.60
2022-11-12T08:55:37.125Z,3.38
2022-11-12T08:58:24.676Z,3.50
2022-11-12T09:01:12.016Z,3.88
2022-11-12T09:03:58.515Z,3.78
2022-11-12T09:06:52.715Z,3.50
2022-11-12T09:09:40.334Z,5.68
2022-11-12T09:12:26.948Z,4.25
2022-11-12T09:18:20.433Z,2.63
2022-11-12T09:21:09.005Z,3.28
2022-11-12T09:23:56.918Z,2.78
2022-11-12T09:26:43.720Z,6.00
2022-11-12T09:29:30.586Z,4.95
2022-11-12T09:32:17.679Z,3.00
2022-11-12T09:35:05.302Z,3.05
2022-11-12T09:37:52.195Z,3.17
2022-11-12T09:41:19.408Z,2.80
2022-11-12T09:44:10.010Z,3.93
2022-11-12T09:47:01.282Z,4.30
2022-11-12T09:49:56.481Z,4.85
2022-11-12T09:52:45.810Z,2.45
2022-11-12T09:55:37.805Z,2.95
2022-11-12T09:58:27.782Z,2.30
2022-11-12T10:01:19.882Z,2.47
2022-11-12T10:04:27.792Z,2.72
2022-11-12T10:07:25.835Z,3.25
2022-11-12T10:10:16.573Z,2.80
2022-11-12T10:13:16.891Z,3.60
2022-11-12T10:16:38.673Z,2.60
2022-11-12T10:19:39.766Z,6.50
2022-11-12T10:22:37.024Z,3.95
2022-11-12T10:25:26.088Z,4.45
2022-11-12T10:28:23.254Z,3.47
2022-11-12T10:31:14.972Z,4.45
2022-11-12T10:34:15.738Z,5.10
2022-11-12T10:37:06.566Z,3.95
2022-11-12T10:39:53.957Z,4.47
2022-11-12T10:42:57.656Z,3.40
2022-11-12T10:45:44.513Z,3.53
2022-11-12T10:48:34.725Z,4.90
2022-11-12T10:51:28.002Z,5.35
2022-11-12T10:54:30.673Z,3.88
2022-11-12T10:57:22.656Z,4.10
2022-11-12T11:00:21.724Z,3.38
2022-11-12T11:03:18.145Z,4.28
2022-11-12T11:06:07.703Z,6.65
2022-11-12T11:09:09.427Z,6.80
2022-11-12T11:11:56.123Z,6.80
2022-11-12T11:14:44.595Z,7.43
2022-11-12T11:17:31.609Z,2.90
2022-11-12T11:20:23.778Z,3.05
2022-11-12T11:23:21.557Z,2.38
2022-11-12T11:26:21.137Z,2.35
2022-11-12T11:29:23.791Z,3.88
2022-11-12T11:32:27.674Z,3.88
2022-11-12T11:35:22.305Z,6.45
2022-11-12T11:38:24.308Z,4.50
2022-11-12T11:41:32.918Z,5.15
2022-11-12T11:44:31.755Z,4.85
2022-11-12T11:47:43.906Z,4.68
2022-11-12T11:50:37.487Z,5.20
2022-11-12T11:53:31.615Z,6.70
2022-11-12T11:56:25.554Z,3.67
2022-11-12T11:59:26.790Z,5.25
2022-11-12T12:02:39.207Z,5.30
2022-11-12T12:05:39.580Z,6.45
2022-11-12T12:08:37.383Z,9.23
2022-11-12T12:11:28.806Z,4.38
2022-11-12T12:14:25.645Z,4.97
2022-11-12T12:17:30.656Z,4.93
2022-11-12T12:20:24.319Z,4.95
2022-11-12T12:23:26.684Z,5.10
2022-11-12T12:26:18.620Z,5.78
2022-11-12T12:29:12.529Z,4.40
2022-11-12T12:32:06.509Z,4.63
2022-11-12T12:34:59.990Z,4.50
2022-11-12T12:37:53.684Z,5.43
2022-11-12T12:40:44.718Z,5.72
2022-11-12T12:43:38.139Z,4.65
2022-11-12T12:46:28.928Z,6.25
2022-11-12T12:49:18.723Z,4.13
2022-11-12T12:52:05.352Z,4.38
2022-11-12T12:54:59.587Z,4.30
2022-11-12T12:57:46.258Z,4.05
2022-11-12T13:00:39.186Z,3.13
2022-11-12T13:03:56.267Z,4.15
2022-11-12T13:06:54.610Z,3.72
2022-11-12T13:09:41.989Z,2.97
2022-11-12T13:13:03.956Z,3.95
2022-11-12T13:15:53.997Z,3.75
2022-11-12T13:19:02.957Z,4.65
2022-11-12T13:22:09.509Z,4.18
2022-11-12T13:25:04.322Z,3.75
2022-11-12T13:28:11.946Z,3.08
2022-11-12T13:31:03.681Z,10.50
2022-11-12T13:33:50.758Z,4.70
2022-11-12T13:36:37.355Z,4.78
2022-11-12T13:39:25.049Z,4.97
2022-11-12T13:42:32.946Z,5.18
2022-11-12T13:45:23.621Z,5.70
2022-11-12T13:48:18.533Z,5.88
2022-11-12T13:51:08.883Z,4.35
2022-11-12T13:53:55.583Z,4.40
2022-11-12T13:56:42.153Z,3.60
2022-11-12T13:59:28.760Z,5.72
2022-11-12T14:02:22.345Z,4.18
2022-11-12T14:05:17.874Z,3.75
2022-11-12T14:08:39.665Z,5.32
2022-11-12T14:11:49.663Z,3.55
2022-11-12T14:14:48.607Z,4.88
2022-11-12T14:17:45.023Z,4.68
2022-11-12T14:23:25.542Z,5.65
2022-11-12T14:26:13.871Z,5.53
2022-11-12T14:29:00.828Z,5.53
2022-11-12T14:31:47.661Z,3.65
2022-11-12T14:34:35.721Z,3.70
2022-11-12T14:37:41.575Z,4.80
2022-11-12T14:40:31.988Z,3.42
2022-11-12T14:43:27.253Z,6.28
2022-11-12T14:46:24.470Z,4.15
2022-11-12T14:49:19.136Z,4.65
2022-11-12T14:52:11.961Z,6.25
2022-11-12T14:55:07.573Z,3.78
2022-11-12T14:57:58.656Z,3.30
2022-11-12T15:00:46.499Z,4.32
2022-11-12T15:03:35.414Z,4.15
2022-11-12T15:06:29.828Z,7.35
2022-11-12T15:09:22.033Z,4.80
2022-11-12T15:12:12.714Z,5.03
2022-11-12T15:15:10.022Z,6.90
2022-11-12T15:18:01.597Z,6.93
2022-11-12T15:21:07.772Z,6.85
2022-11-12T15:24:00.762Z,6.80
2022-11-12T15:26:49.130Z,9.02
2022-11-12T15:29:37.251Z,11.63
2022-11-12T15:32:35.079Z,16.30
2022-11-12T15:35:36.961Z,8.38
2022-11-12T15:38:27.779Z,6.65
2022-11-12T15:41:27.241Z,6.13
2022-11-12T15:44:14.035Z,7.50
2022-11-12T15:47:02.905Z,7.25
2022-11-12T15:49:54.191Z,8.75
2022-11-12T15:52:41.058Z,5.38
2022-11-12T15:55:27.931Z,7.65
2022-11-12T15:58:18.370Z,7.90
2022-11-12T16:01:06.479Z,5.00
2022-11-12T16:03:54.698Z,7.63
2022-11-12T16:06:41.336Z,5.50
2022-11-12T16:09:27.931Z,7.38
2022-11-12T16:12:16.181Z,9.43
2022-11-12T16:15:03.368Z,7.97
2022-11-12T16:17:50.027Z,8.15
2022-11-12T16:20:38.229Z,7.95
2022-11-12T16:23:25.333Z,12.50
2022-11-12T16:26:17.306Z,10.27
2022-11-12T16:29:04.092Z,13.15
2022-11-12T16:31:50.536Z,14.00
2022-11-12T16:34:37.359Z,13.82
2022-11-12T16:37:25.626Z,16.90
2022-11-12T16:40:16.256Z,16.00
2022-11-12T16:43:02.741Z,18.48
2022-11-12T16:45:49.479Z,20.58
2022-11-12T16:48:38.153Z,20.77
2022-11-12T16:51:25.154Z,20.70
2022-11-12T16:54:13.172Z,21.63
2022-11-12T16:56:59.721Z,21.92
2022-11-12T16:59:46.190Z,22.88
2022-11-12T17:02:32.578Z,22.88
2022-11-12T17:05:21.348Z,24.77
2022-11-12T17:08:07.809Z,23.77
2022-11-12T17:10:56.233Z,19.77
2022-11-12T17:13:43.573Z,23.95
2022-11-12T17:16:30.461Z,22.00
2022-11-12T17:19:17.538Z,18.88
2022-11-12T17:22:04.770Z,18.33
2022-11-12T17:24:51.401Z,22.52
2022-11-12T17:27:39.517Z,19.33
2022-11-12T17:30:26.299Z,16.15
2022-11-12T17:33:12.990Z,17.58
2022-11-12T17:36:02.842Z,15.50
2022-11-12T17:38:50.163Z,18.98
2022-11-12T17:41:36.978Z,17.20
2022-11-12T17:44:26.245Z,14.38
2022-11-12T17:47:13.244Z,12.68
2022-11-12T17:49:59.827Z,13.73
2022-11-12T17:52:46.686Z,12.82
2022-11-12T17:55:33.917Z,16.48
2022-11-12T17:58:20.738Z,13.27
2022-11-12T18:01:12.580Z,12.18
2022-11-12T18:04:00.149Z,12.43
2022-11-12T18:06:47.003Z,12.23
2022-11-12T18:09:33.692Z,11.07
2022-11-12T18:12:21.149Z,12.18
2022-11-12T18:15:08.475Z,9.32
2022-11-12T18:17:56.471Z,11.38
2022-11-12T18:20:43.570Z,10.05
2022-11-12T18:23:30.367Z,9.20
2022-11-12T18:26:19.304Z,10.57
2022-11-12T18:29:07.317Z,12.77
2022-11-12T18:31:54.125Z,11.73
2022-11-12T18:34:45.162Z,11.73
2022-11-12T18:37:32.008Z,12.43
2022-11-12T18:40:19.112Z,14.25
2022-11-12T18:43:05.886Z,14.85
2022-11-12T18:45:56.016Z,20.02
2022-11-12T18:48:42.828Z,12.70
2022-11-12T18:51:30.929Z,12.85
2022-11-12T18:54:17.454Z,16.15
2022-11-12T18:57:04.235Z,11.57
2022-11-12T18:59:52.261Z,12.43
2022-11-12T19:02:38.983Z,13.23
2022-11-12T19:05:25.579Z,13.48
2022-11-12T19:08:14.030Z,15.23
2022-11-12T19:11:01.536Z,14.90
2022-11-12T19:13:51.762Z,16.50
2022-11-12T19:16:45.052Z,15.02
2022-11-12T19:19:31.555Z,13.52
2022-11-12T19:22:18.424Z,13.07
2022-11-12T19:25:07.732Z,12.40
2022-11-12T19:27:55.404Z,12.15
2022-11-12T19:30:41.614Z,11.52
2022-11-12T19:33:29.538Z,15.02
2022-11-12T19:36:18.313Z,10.65
2022-11-12T19:39:05.564Z,13.70
2022-11-12T19:41:55.765Z,17.10
2022-11-12T19:44:44.622Z,14.90
2022-11-12T19:47:42.571Z,10.52
2022-11-12T19:50:30.757Z,11.88
2022-11-12T19:53:17.325Z,13.57
2022-11-12T19:56:04.962Z,13.82
2022-11-12T19:58:55.024Z,12.82
2022-11-12T20:01:41.888Z,12.93
2022-11-12T20:04:28.648Z,12.23
2022-11-12T20:07:15.195Z,13.85
2022-11-12T20:10:01.754Z,14.48
2022-11-12T20:12:48.647Z,13.75
2022-11-12T20:15:39.230Z,19.58
2022-11-12T20:18:26.783Z,13.35
2022-11-12T20:21:14.397Z,13.25
2022-11-12T20:24:02.236Z,12.70
2022-11-12T20:26:49.115Z,14.07
2022-11-12T20:29:35.475Z,14.52
2022-11-12T20:32:24.290Z,13.60
2022-11-12T20:35:19.345Z,14.32
2022-11-12T20:38:07.984Z,15.50
2022-11-12T20:41:00.099Z,12.52
2022-11-12T20:43:46.954Z,12.90
2022-11-12T20:46:33.416Z,13.85
2022-11-12T20:49:21.544Z,15.00
2022-11-12T20:52:08.641Z,13.43
2022-11-12T20:54:55.539Z,12.27
2022-11-12T20:57:42.321Z,11.30
2022-11-12T21:00:29.402Z,12.30
2022-11-12T21:03:16.681Z,12.70
2022-11-12T21:06:06.995Z,13.68
2022-11-12T21:08:53.881Z,13.15
2022-11-12T21:11:40.759Z,16.52
2022-11-12T21:14:27.243Z,16.73
2022-11-12T21:17:13.971Z,16.67
2022-11-12T21:20:00.827Z,15.18
2022-11-12T21:22:49.154Z,21.40
2022-11-12T21:25:36.753Z,25.35
2022-11-12T21:28:23.784Z,30.88
2022-11-12T21:31:12.537Z,25.98
2022-11-12T21:34:03.195Z,19.73
2022-11-12T21:36:49.832Z,16.80
2022-11-12T21:39:37.796Z,15.45
2022-11-12T21:42:24.718Z,10.50
2022-11-12T21:45:12.125Z,13.25
2022-11-12T21:47:58.898Z,14.27
2022-11-12T21:50:45.742Z,14.20
2022-11-12T21:53:32.750Z,17.33
2022-11-12T21:56:20.847Z,14.77
2022-11-12T21:59:07.706Z,14.82
2022-11-12T22:01:54.398Z,16.00
2022-11-12T22:04:41.430Z,14.52
2022-11-12T22:07:28.248Z,15.40
2022-11-12T22:10:15.035Z,12.25
2022-11-12T22:13:26.078Z,13.63
2022-11-12T22:16:11.681Z,12.95
2022-11-12T22:19:00.376Z,15.75
2022-11-12T22:21:47.009Z,12.02
2022-11-12T22:24:34.193Z,12.35
2022-11-12T22:27:20.785Z,17.48
2022-11-12T22:30:11.088Z,16.17
2022-11-12T22:32:58.008Z,19.05
2022-11-12T22:35:44.727Z,15.52
2022-11-12T22:38:35.313Z,16.60
2022-11-12T22:41:24.489Z,13.75
2022-11-12T22:44:11.059Z,13.75
2022-11-12T22:46:59.104Z,14.57
2022-11-12T22:49:45.866Z,13.68
2022-11-12T22:52:32.331Z,15.40
2022-11-12T22:55:18.873Z,12.88
2022-11-12T22:58:05.845Z,11.93
2022-11-12T23:00:52.893Z,12.10
2022-11-12T23:03:40.970Z,11.80
2022-11-12T23:06:29.127Z,10.30
2022-11-12T23:09:17.306Z,10.50
2022-11-12T23:12:04.291Z,13.73
2022-11-12T23:14:51.820Z,13.43
2022-11-12T23:17:38.787Z,12.73
2022-11-12T23:20:27.295Z,13.90
2022-11-12T23:23:13.717Z,14.75
2022-11-12T23:26:05.449Z,13.98
2022-11-12T23:28:52.567Z,15.93
2022-11-12T23:31:39.434Z,11.20
2022-11-12T23:34:26.068Z,11.07
2022-11-12T23:37:14.450Z,10.00
2022-11-12T23:40:00.898Z,10.40
2022-11-12T23:42:47.468Z,12.13
2022-11-12T23:45:37.739Z,12.60
2022-11-12T23:48:25.092Z,12.63
2022-11-12T23:51:13.749Z,11.90
2022-11-12T23:54:01.578Z,9.63
2022-11-12T23:56:48.354Z,11.13
2022-11-12T23:59:34.912Z,9.23
